createdAt,value
2023-03-05T07:23:36.193Z,45.70
2023-03-05T07:38:41.220Z,47.40
2023-03-05T07:53:47.628Z,45.60
2023-03-05T08:08:52.390Z,44.50
2023-03-05T08:23:57.480Z,43.90
2023-03-05T08:39:02.213Z,43.50
2023-03-05T08:54:07.598Z,43.30
2023-03-05T09:09:13.662Z,43.00
2023-03-05T09:24:18.354Z,43.40
2023-03-05T09:39:22.924Z,44.70
2023-03-05T09:54:34.047Z,44.70
2023-03-05T10:09:46.468Z,43.90
2023-03-05T10:25:02.565Z,43.20
2023-03-05T10:40:14.545Z,43.00
2023-03-05T10:55:21.509Z,43.40
2023-03-05T11:10:26.593Z,43.40
2023-03-05T11:25:31.680Z,42.90
2023-03-05T11:40:36.842Z,42.30
2023-03-05T11:55:44.332Z,42.50
2023-03-05T12:10:49.204Z,42.20
2023-03-05T12:25:57.011Z,42.40
2023-03-05T12:41:37.581Z,42.20
2023-03-05T12:56:47.455Z,42.00
2023-03-05T13:11:54.561Z,41.70
2023-03-05T13:26:59.179Z,42.80
2023-03-05T13:42:06.369Z,44.00
2023-03-05T13:57:37.444Z,45.10
2023-03-05T14:12:43.758Z,43.60
2023-03-05T14:27:48.966Z,43.20
2023-03-05T14:42:55.395Z,42.80
2023-03-05T14:58:05.263Z,43.70
2023-03-05T15:13:09.833Z,42.90
2023-03-05T15:28:14.486Z,44.20
2023-03-05T15:43:19.748Z,44.40
2023-03-05T15:58:24.297Z,44.30
2023-03-05T16:13:30.184Z,44.20
2023-03-05T16:28:34.794Z,44.00
2023-03-05T16:43:39.718Z,43.50
2023-03-05T16:58:44.273Z,43.00
2023-03-05T17:13:49.115Z,42.70
2023-03-05T17:28:54.839Z,42.60
2023-03-05T17:43:59.426Z,42.40
2023-03-05T17:59:04.061Z,42.30
2023-03-05T18:14:08.614Z,42.10
2023-03-05T18:29:13.186Z,42.00
2023-03-05T18:44:19.751Z,41.90
2023-03-05T18:59:25.161Z,41.70
2023-03-05T19:14:29.766Z,41.70
2023-03-05T19:29:37.529Z,41.70
2023-03-05T19:44:42.225Z,41.60
2023-03-05T19:59:46.781Z,41.50
2023-03-05T20:14:51.365Z,41.40
2023-03-05T20:29:55.903Z,42.10
2023-03-05T20:45:00.482Z,41.30
